createdAt,value
2022-11-16T00:01:27.278Z,55.91
2022-11-16T00:04:00.667Z,56.81
2022-11-16T00:06:31.377Z,56.98
2022-11-16T00:09:22.160Z,56.07
2022-11-16T00:11:56.948Z,56.44
2022-11-16T00:14:29.787Z,60.43
2022-11-16T00:17:00.655Z,60.62
2022-11-16T00:19:31.104Z,61.72
2022-11-16T00:22:01.562Z,61.39
2022-11-16T00:24:31.806Z,60.24
2022-11-16T00:27:02.143Z,62.42
2022-11-16T00:29:32.826Z,63.02
2022-11-16T00:32:03.109Z,61.73
2022-11-16T00:34:33.368Z,63.15
2022-11-16T00:37:03.943Z,62.10
2022-11-16T00:39:34.304Z,63.47
2022-11-16T00:42:04.470Z,61.88
2022-11-16T00:44:34.871Z,62.36
2022-11-16T00:47:05.314Z,61.96
2022-11-16T00:49:34.963Z,62.97
2022-11-16T00:52:05.459Z,61.87
2022-11-16T00:54:35.706Z,61.00
2022-11-16T00:57:06.228Z,63.75
2022-11-16T00:59:36.318Z,63.28
2022-11-16T01:02:06.591Z,62.87
2022-11-16T01:04:36.766Z,62.06
2022-11-16T01:07:08.150Z,62.07
2022-11-16T01:09:38.509Z,62.00
2022-11-16T01:12:11.785Z,63.55
2022-11-16T01:14:44.349Z,63.15
2022-11-16T01:17:16.323Z,64.02
2022-11-16T01:19:46.662Z,64.72
2022-11-16T01:22:16.963Z,64.59
2022-11-16T01:24:50.127Z,63.44
2022-11-16T01:27:20.409Z,65.21
2022-11-16T01:29:50.772Z,62.39
2022-11-16T01:32:21.127Z,63.58
2022-11-16T01:34:52.190Z,64.94
2022-11-16T01:37:34.400Z,64.58
2022-11-16T01:40:05.900Z,64.98
2022-11-16T01:42:37.044Z,66.90
2022-11-16T01:45:25.643Z,65.39
2022-11-16T01:47:59.109Z,65.80
2022-11-16T01:50:33.422Z,65.68
2022-11-16T01:53:07.411Z,65.90
2022-11-16T01:55:54.587Z,66.36
2022-11-16T01:58:48.220Z,66.25
2022-11-16T02:01:26.230Z,67.39
2022-11-16T02:04:01.388Z,66.64
2022-11-16T02:07:18.519Z,66.90
2022-11-16T02:10:07.095Z,67.45
2022-11-16T02:13:03.540Z,68.70
2022-11-16T02:16:05.529Z,67.47
2022-11-16T02:19:01.529Z,66.62
2022-11-16T02:21:46.878Z,67.47
2022-11-16T02:24:34.096Z,69.53
2022-11-16T02:27:13.525Z,68.58
2022-11-16T02:29:52.052Z,68.12
2022-11-16T02:32:26.566Z,67.66
2022-11-16T02:35:00.318Z,67.91
2022-11-16T02:37:39.894Z,67.76
2022-11-16T02:40:13.796Z,68.13
2022-11-16T02:42:55.411Z,68.67
2022-11-16T02:45:30.329Z,67.69
2022-11-16T02:48:06.569Z,71.05
2022-11-16T02:50:38.567Z,69.29
2022-11-16T02:53:08.995Z,69.23
2022-11-16T02:55:39.531Z,69.67
2022-11-16T02:58:12.906Z,68.04
2022-11-16T03:00:58.282Z,69.26
2022-11-16T03:03:52.477Z,69.07
2022-11-16T03:06:31.947Z,69.54
2022-11-16T03:09:13.758Z,69.49
2022-11-16T03:12:01.316Z,69.29
2022-11-16T03:14:51.073Z,68.79
2022-11-16T03:17:49.234Z,68.30
2022-11-16T03:20:31.471Z,70.01
2022-11-16T03:23:05.583Z,70.22
2022-11-16T03:25:53.207Z,70.60
2022-11-16T03:28:32.892Z,69.58
2022-11-16T03:31:20.518Z,70.77
2022-11-16T03:33:54.563Z,70.73
2022-11-16T03:36:36.905Z,70.70
2022-11-16T03:39:13.511Z,71.60
2022-11-16T03:41:46.001Z,71.87
2022-11-16T03:44:19.108Z,70.29
2022-11-16T03:46:50.137Z,70.90
2022-11-16T03:49:23.923Z,69.55
2022-11-16T03:51:56.017Z,71.75
2022-11-16T03:54:25.929Z,69.14
2022-11-16T03:56:56.103Z,71.35
2022-11-16T03:59:25.770Z,70.72
2022-11-16T04:01:56.377Z,73.24
2022-11-16T04:04:45.011Z,72.39
2022-11-16T04:07:33.386Z,72.37
2022-11-16T04:10:22.115Z,71.20
2022-11-16T04:13:10.885Z,69.86
2022-11-16T04:15:58.954Z,70.46
2022-11-16T04:18:48.221Z,72.78
2022-11-16T04:22:00.200Z,72.00
2022-11-16T04:24:38.674Z,72.79
2022-11-16T04:27:51.230Z,71.85
2022-11-16T04:30:21.655Z,72.06
2022-11-16T04:33:10.506Z,71.74
2022-11-16T04:35:58.621Z,72.18
2022-11-16T04:38:28.946Z,72.04
2022-11-16T04:40:58.707Z,72.16
2022-11-16T04:43:28.646Z,73.19
2022-11-16T04:46:17.304Z,73.09
2022-11-16T04:48:47.539Z,74.48
2022-11-16T04:51:17.351Z,72.69
2022-11-16T04:53:47.480Z,70.89
2022-11-16T04:56:22.411Z,72.38
2022-11-16T04:58:52.670Z,71.58
2022-11-16T05:01:45.714Z,72.82
2022-11-16T05:04:16.106Z,73.81
2022-11-16T05:06:46.518Z,70.53
2022-11-16T05:09:17.499Z,72.19
2022-11-16T05:11:48.483Z,73.15
2022-11-16T05:14:18.538Z,71.99
2022-11-16T05:16:49.404Z,72.08
2022-11-16T05:19:38.608Z,71.46
2022-11-16T05:22:09.470Z,71.87
2022-11-16T05:24:40.194Z,72.68
2022-11-16T05:27:12.985Z,72.98
2022-11-16T05:29:44.202Z,71.41
2022-11-16T05:32:19.125Z,71.58
2022-11-16T05:34:50.238Z,72.28
2022-11-16T05:37:22.460Z,73.88
2022-11-16T05:39:52.820Z,74.12
2022-11-16T05:42:25.498Z,74.83
2022-11-16T05:44:56.163Z,74.65
2022-11-16T05:47:26.530Z,75.09
2022-11-16T05:49:57.135Z,75.07
2022-11-16T05:52:29.485Z,73.84
2022-11-16T05:55:04.552Z,75.67
2022-11-16T05:57:39.005Z,76.19
2022-11-16T06:00:09.153Z,74.85
2022-11-16T06:02:44.968Z,75.70
2022-11-16T06:05:23.108Z,75.50
2022-11-16T06:07:53.652Z,76.43
2022-11-16T06:10:42.711Z,76.58
2022-11-16T06:13:31.378Z,75.76
2022-11-16T06:16:05.032Z,77.42
2022-11-16T06:18:42.045Z,76.62
2022-11-16T06:21:14.170Z,75.91
2022-11-16T06:23:44.728Z,75.28
2022-11-16T06:26:15.222Z,78.19
2022-11-16T06:28:46.170Z,77.13
2022-11-16T06:31:16.861Z,77.36
2022-11-16T06:33:48.090Z,77.47
2022-11-16T06:36:23.707Z,77.81
2022-11-16T06:38:54.101Z,78.44
2022-11-16T06:41:25.407Z,77.40
2022-11-16T06:43:56.166Z,78.48
2022-11-16T06:46:33.500Z,78.00
2022-11-16T06:49:04.009Z,79.01
2022-11-16T06:51:35.863Z,78.34
2022-11-16T06:54:07.607Z,79.35
2022-11-16T06:56:39.069Z,78.95
2022-11-16T06:59:10.384Z,78.15
2022-11-16T07:01:41.086Z,79.53
2022-11-16T07:04:17.304Z,79.70
2022-11-16T07:06:54.570Z,80.40
2022-11-16T07:09:24.789Z,79.17
2022-11-16T07:11:55.535Z,80.20
2022-11-16T07:14:26.440Z,80.56
2022-11-16T07:17:00.393Z,80.80
2022-11-16T07:19:32.280Z,80.37
2022-11-16T07:22:02.934Z,80.85
2022-11-16T07:24:33.990Z,80.90
2022-11-16T07:27:04.619Z,80.41
2022-11-16T07:29:38.640Z,80.75
2022-11-16T07:32:34.652Z,81.90
2022-11-16T07:35:16.605Z,80.73
2022-11-16T07:37:46.924Z,82.38
2022-11-16T07:40:18.570Z,81.78
2022-11-16T07:42:49.530Z,82.40
2022-11-16T07:45:35.772Z,83.44
2022-11-16T07:48:10.879Z,81.99
2022-11-16T07:51:18.854Z,81.50
2022-11-16T07:54:09.570Z,82.35
2022-11-16T07:56:39.966Z,83.59
2022-11-16T07:59:10.740Z,82.57
2022-11-16T08:01:48.205Z,83.68
2022-11-16T08:04:19.814Z,83.58
2022-11-16T08:06:52.955Z,84.52
2022-11-16T08:09:24.319Z,83.94
2022-11-16T08:11:56.199Z,83.77
2022-11-16T08:14:26.918Z,83.08
2022-11-16T08:16:59.112Z,83.68
2022-11-16T08:19:28.844Z,82.98
2022-11-16T08:21:59.316Z,84.47
2022-11-16T08:24:35.248Z,84.80
2022-11-16T08:27:05.910Z,84.19
2022-11-16T08:29:36.150Z,84.94
2022-11-16T08:32:09.296Z,84.53
2022-11-16T08:34:39.992Z,85.10
2022-11-16T08:37:09.753Z,83.99
2022-11-16T08:39:43.036Z,84.69
2022-11-16T08:42:13.325Z,83.50
2022-11-16T08:44:47.572Z,83.79
2022-11-16T08:47:20.783Z,83.63
2022-11-16T08:49:54.838Z,84.15
2022-11-16T08:52:27.363Z,83.96
2022-11-16T08:54:58.812Z,83.93
2022-11-16T08:57:29.298Z,85.29
2022-11-16T09:00:02.347Z,84.39
2022-11-16T09:02:32.888Z,84.94
2022-11-16T09:05:03.094Z,83.40
2022-11-16T09:07:33.779Z,84.06
2022-11-16T09:10:04.043Z,83.57
2022-11-16T09:12:38.202Z,82.97
2022-11-16T09:15:08.973Z,82.63
2022-11-16T09:17:39.275Z,83.45
2022-11-16T09:20:09.347Z,82.45
2022-11-16T09:22:39.534Z,83.32
2022-11-16T09:25:10.674Z,82.35
2022-11-16T09:27:41.307Z,81.53
2022-11-16T09:30:13.051Z,82.01
2022-11-16T09:32:43.503Z,81.73
2022-11-16T09:35:13.175Z,80.46
2022-11-16T09:37:43.340Z,80.65
2022-11-16T09:40:13.953Z,81.44
2022-11-16T09:43:18.428Z,80.49
2022-11-16T09:46:02.477Z,79.71
2022-11-16T09:48:35.721Z,77.65
2022-11-16T09:51:09.576Z,78.17
2022-11-16T09:53:43.700Z,77.75
2022-11-16T09:56:28.399Z,77.49
2022-11-16T09:59:16.710Z,75.42
2022-11-16T10:01:54.747Z,75.30
2022-11-16T10:04:58.152Z,74.06
2022-11-16T10:07:38.971Z,76.92
2022-11-16T10:10:18.517Z,75.07
2022-11-16T10:13:04.164Z,74.14
2022-11-16T10:15:49.871Z,73.54
2022-11-16T10:18:35.290Z,74.07
2022-11-16T10:21:34.432Z,74.28
2022-11-16T10:24:32.900Z,73.22
2022-11-16T10:27:47.932Z,73.79
2022-11-16T10:30:23.258Z,72.63
2022-11-16T10:33:09.650Z,73.01
2022-11-16T10:35:57.308Z,71.65
2022-11-16T10:38:34.471Z,72.29
2022-11-16T10:41:37.045Z,72.04
2022-11-16T10:44:19.434Z,71.32
2022-11-16T10:47:13.447Z,69.49
2022-11-16T10:49:58.580Z,70.47
2022-11-16T10:52:29.344Z,68.83
2022-11-16T10:54:59.577Z,69.34
2022-11-16T10:57:49.017Z,68.96
2022-11-16T11:00:47.770Z,68.82
2022-11-16T11:03:32.877Z,67.32
2022-11-16T11:06:03.718Z,66.93
2022-11-16T11:08:33.998Z,68.01
2022-11-16T11:11:24.641Z,69.57
2022-11-16T11:14:12.839Z,69.53
2022-11-16T11:16:43.583Z,69.55
2022-11-16T11:19:33.807Z,69.19
2022-11-16T11:22:04.169Z,70.60
2022-11-16T11:24:49.817Z,70.30
2022-11-16T11:27:26.099Z,71.00
2022-11-16T11:29:59.948Z,70.65
2022-11-16T11:32:42.179Z,71.47
2022-11-16T11:35:28.683Z,70.73
2022-11-16T11:38:07.650Z,71.85
2022-11-16T11:40:38.737Z,72.36
2022-11-16T11:43:25.404Z,70.28
2022-11-16T11:46:47.326Z,70.44
2022-11-16T11:49:33.431Z,70.28
2022-11-16T11:52:13.369Z,70.60
2022-11-16T11:54:49.703Z,70.37
2022-11-16T11:57:23.394Z,69.26
2022-11-16T11:59:56.395Z,69.30
2022-11-16T12:02:35.620Z,69.98
2022-11-16T12:05:21.265Z,69.44
2022-11-16T12:08:13.755Z,68.10
2022-11-16T12:10:48.667Z,68.20
2022-11-16T12:13:41.502Z,67.99
2022-11-16T12:17:07.937Z,69.04
2022-11-16T12:19:57.643Z,68.18
2022-11-16T12:22:52.052Z,67.40
2022-11-16T12:25:51.908Z,67.16
2022-11-16T12:28:40.796Z,67.73
2022-11-16T12:31:32.204Z,66.77
2022-11-16T12:34:39.359Z,66.27
2022-11-16T12:37:22.071Z,66.37
2022-11-16T12:40:18.223Z,65.50
2022-11-16T12:43:02.317Z,63.19
2022-11-16T12:45:47.799Z,61.23
2022-11-16T12:48:33.026Z,61.14
2022-11-16T12:51:32.095Z,61.41
2022-11-16T12:54:08.423Z,60.86
2022-11-16T12:56:48.661Z,57.89
2022-11-16T12:59:52.897Z,59.94
2022-11-16T13:02:48.216Z,59.18
2022-11-16T13:05:24.342Z,57.31
2022-11-16T13:08:07.179Z,58.31
2022-11-16T13:10:44.228Z,58.59
2022-11-16T13:13:40.108Z,58.53
2022-11-16T13:16:12.156Z,57.83
2022-11-16T13:18:44.192Z,59.19
2022-11-16T13:21:36.139Z,60.10
2022-11-16T13:24:23.637Z,58.17
2022-11-16T13:27:31.969Z,59.04
2022-11-16T13:30:06.413Z,59.15
2022-11-16T13:32:51.191Z,59.67
2022-11-16T13:35:22.465Z,57.70
2022-11-16T13:37:53.586Z,58.80
2022-11-16T13:40:29.945Z,57.71
2022-11-16T13:43:20.925Z,56.14
2022-11-16T13:45:51.206Z,57.25
2022-11-16T13:48:27.228Z,54.42
2022-11-16T13:51:05.831Z,56.03
2022-11-16T13:57:07.342Z,55.22
2022-11-16T13:59:38.590Z,56.15
2022-11-16T14:02:28.874Z,56.01
2022-11-16T14:05:03.354Z,49.12
2022-11-16T14:07:51.218Z,50.71
2022-11-16T14:10:46.950Z,53.15
2022-11-16T14:13:34.766Z,52.72
2022-11-16T14:16:23.918Z,52.27
2022-11-16T14:19:02.423Z,53.30
2022-11-16T14:22:08.082Z,50.65
2022-11-16T14:25:12.971Z,51.87
2022-11-16T14:28:25.802Z,50.36
2022-11-16T14:30:59.129Z,49.98
2022-11-16T14:33:39.097Z,50.96
2022-11-16T14:36:12.431Z,51.43
2022-11-16T14:38:44.763Z,50.03
2022-11-16T14:41:24.676Z,50.44
2022-11-16T14:43:59.711Z,50.06
2022-11-16T14:46:37.853Z,49.46
2022-11-16T14:49:15.912Z,48.17
2022-11-16T14:51:50.528Z,51.23
2022-11-16T14:54:34.242Z,48.89
2022-11-16T14:57:07.647Z,46.06
2022-11-16T14:59:37.874Z,48.45
2022-11-16T15:02:22.979Z,45.10
2022-11-16T15:04:54.864Z,44.04
2022-11-16T15:07:26.266Z,45.16
2022-11-16T15:10:00.566Z,34.50
2022-11-16T15:12:43.388Z,39.53
2022-11-16T15:15:13.591Z,42.18
2022-11-16T15:17:54.617Z,41.85
2022-11-16T15:20:26.606Z,44.19
2022-11-16T15:23:00.223Z,41.04
2022-11-16T15:25:33.272Z,41.54
2022-11-16T15:28:15.642Z,44.79
2022-11-16T15:30:50.630Z,42.82
2022-11-16T15:33:31.972Z,42.43
2022-11-16T15:36:02.526Z,43.26
2022-11-16T15:38:34.842Z,44.03
2022-11-16T15:41:06.632Z,42.32
2022-11-16T15:44:01.375Z,41.35
2022-11-16T15:46:36.974Z,39.21
2022-11-16T15:49:34.563Z,40.86
2022-11-16T15:52:05.180Z,38.19
2022-11-16T15:54:57.300Z,39.13
2022-11-16T15:57:27.723Z,38.38
2022-11-16T15:59:59.543Z,39.68
2022-11-16T16:02:32.428Z,40.79
2022-11-16T16:05:02.818Z,38.79
2022-11-16T16:07:45.268Z,39.56
2022-11-16T16:10:21.324Z,37.77
2022-11-16T16:12:55.334Z,38.51
2022-11-16T16:15:37.880Z,40.29
2022-11-16T16:18:38.128Z,37.80
2022-11-16T16:21:08.511Z,37.82
2022-11-16T16:23:58.254Z,36.41
2022-11-16T16:26:28.690Z,36.75
2022-11-16T16:28:59.032Z,35.77
2022-11-16T16:31:29.340Z,34.31
2022-11-16T16:34:00.790Z,34.68
2022-11-16T16:36:31.234Z,35.61
2022-11-16T16:39:01.331Z,34.99
2022-11-16T16:41:31.963Z,35.35
2022-11-16T16:44:02.302Z,36.88
2022-11-16T16:46:32.492Z,35.41
2022-11-16T16:49:02.839Z,34.33
2022-11-16T16:51:33.234Z,36.61
2022-11-16T16:54:03.349Z,34.94
2022-11-16T16:56:33.721Z,33.84
2022-11-16T16:59:04.016Z,34.77
2022-11-16T17:01:34.351Z,34.90
2022-11-16T17:04:04.754Z,36.36
2022-11-16T17:06:35.219Z,35.66
2022-11-16T17:09:05.992Z,33.88
2022-11-16T17:11:36.442Z,34.65
2022-11-16T17:14:07.168Z,34.46
2022-11-16T17:16:38.024Z,33.85
2022-11-16T17:19:08.334Z,33.54
2022-11-16T17:21:38.827Z,31.97
2022-11-16T17:24:09.231Z,35.54
2022-11-16T17:26:39.650Z,32.53
2022-11-16T17:29:09.919Z,32.42
2022-11-16T17:31:44.682Z,32.26
2022-11-16T17:34:15.025Z,30.72
2022-11-16T17:36:46.232Z,33.85
2022-11-16T17:39:17.217Z,32.43
2022-11-16T17:41:47.998Z,31.98
2022-11-16T17:44:21.797Z,31.24
2022-11-16T17:46:52.652Z,32.71
2022-11-16T17:49:23.102Z,34.68
2022-11-16T17:51:53.448Z,34.32
2022-11-16T17:54:23.738Z,34.18
2022-11-16T17:56:54.136Z,31.55
2022-11-16T17:59:29.227Z,32.77
2022-11-16T18:02:00.322Z,32.61
2022-11-16T18:04:30.715Z,31.30
2022-11-16T18:07:02.338Z,32.42
2022-11-16T18:09:32.738Z,32.56
2022-11-16T18:12:03.106Z,33.61
2022-11-16T18:14:33.492Z,32.04
2022-11-16T18:17:03.832Z,32.96
2022-11-16T18:19:34.161Z,31.74
2022-11-16T18:22:04.345Z,34.02
2022-11-16T18:24:34.778Z,33.43
2022-11-16T18:27:05.106Z,31.97
2022-11-16T18:29:36.581Z,33.24
2022-11-16T18:32:07.085Z,31.20
2022-11-16T18:34:37.354Z,31.45
2022-11-16T18:37:07.831Z,34.26
2022-11-16T18:39:38.179Z,33.72
2022-11-16T18:42:09.370Z,31.61
2022-11-16T18:44:39.668Z,30.59
2022-11-16T18:47:10.002Z,31.84
2022-11-16T18:49:40.361Z,33.21
2022-11-16T18:52:10.678Z,33.27
2022-11-16T18:54:40.977Z,32.28
2022-11-16T18:57:11.680Z,31.42
2022-11-16T18:59:42.014Z,34.98
2022-11-16T19:02:15.483Z,31.07
2022-11-16T19:04:45.816Z,32.26
2022-11-16T19:07:16.247Z,30.48
2022-11-16T19:09:46.586Z,31.60
2022-11-16T19:12:16.924Z,31.86
2022-11-16T19:14:47.256Z,33.98
2022-11-16T19:17:17.527Z,32.29
2022-11-16T19:19:47.913Z,31.48
2022-11-16T19:22:18.430Z,31.79
2022-11-16T19:24:48.593Z,32.40
2022-11-16T19:27:18.918Z,32.26
2022-11-16T19:29:49.240Z,31.09
2022-11-16T19:32:19.451Z,33.26
2022-11-16T19:34:49.729Z,31.13
2022-11-16T19:37:20.228Z,31.29
2022-11-16T19:39:50.640Z,31.70
2022-11-16T19:42:21.248Z,32.00
2022-11-16T19:44:51.509Z,33.47
2022-11-16T19:47:24.355Z,32.26
2022-11-16T19:49:55.206Z,32.23
2022-11-16T19:52:25.530Z,32.05
2022-11-16T19:54:56.846Z,33.37
2022-11-16T19:57:27.257Z,32.02
2022-11-16T19:59:57.730Z,33.28
2022-11-16T20:02:28.086Z,31.57
2022-11-16T20:04:58.349Z,31.23
2022-11-16T20:07:28.620Z,31.74
2022-11-16T20:09:59.704Z,33.56
2022-11-16T20:12:30.393Z,32.89
2022-11-16T20:15:02.640Z,33.05
2022-11-16T20:17:33.020Z,32.20
2022-11-16T20:20:03.332Z,32.50
2022-11-16T20:22:33.603Z,33.29
2022-11-16T20:25:03.880Z,34.18
2022-11-16T20:27:33.965Z,33.15
2022-11-16T20:30:09.251Z,33.12
2022-11-16T20:32:40.382Z,32.64
2022-11-16T20:35:13.720Z,33.31
2022-11-16T20:37:46.744Z,33.82
2022-11-16T20:40:17.049Z,34.24
2022-11-16T20:42:49.246Z,32.95
2022-11-16T20:45:19.545Z,33.78
2022-11-16T20:47:49.857Z,35.65
2022-11-16T20:50:23.199Z,35.17
2022-11-16T20:52:53.550Z,35.25
2022-11-16T20:55:23.855Z,34.43
2022-11-16T20:57:54.192Z,34.52
2022-11-16T21:00:24.504Z,35.22
2022-11-16T21:02:55.255Z,34.21
2022-11-16T21:05:25.542Z,34.95
2022-11-16T21:07:55.682Z,35.80
2022-11-16T21:10:26.015Z,36.50
2022-11-16T21:13:14.588Z,36.15
2022-11-16T21:15:44.383Z,37.56
2022-11-16T21:18:14.396Z,36.54
2022-11-16T21:20:44.716Z,37.21
2022-11-16T21:23:15.036Z,36.97
2022-11-16T21:25:45.282Z,39.10
2022-11-16T21:28:15.562Z,37.99
2022-11-16T21:30:56.992Z,38.81
2022-11-16T21:33:27.894Z,40.39
2022-11-16T21:35:58.244Z,38.87
2022-11-16T21:38:28.547Z,40.54
2022-11-16T21:40:58.839Z,40.52
2022-11-16T21:43:30.255Z,40.18
2022-11-16T21:46:05.553Z,41.49
2022-11-16T21:48:37.102Z,41.34
2022-11-16T21:51:12.763Z,42.48
2022-11-16T21:53:43.317Z,41.43
2022-11-16T21:56:19.271Z,44.01
2022-11-16T21:58:51.187Z,46.38
2022-11-16T22:01:22.501Z,47.49
2022-11-16T22:04:11.908Z,48.16
2022-11-16T22:07:14.291Z,48.25
2022-11-16T22:09:44.617Z,48.45
2022-11-16T22:12:14.935Z,50.21
2022-11-16T22:14:45.310Z,51.27
2022-11-16T22:17:15.660Z,51.36
2022-11-16T22:19:45.957Z,52.09
2022-11-16T22:22:16.286Z,54.22
2022-11-16T22:24:46.769Z,51.76
2022-11-16T22:27:18.254Z,53.17
2022-11-16T22:29:48.601Z,54.18
2022-11-16T22:32:18.941Z,54.82
2022-11-16T22:34:49.538Z,55.31
2022-11-16T22:37:20.358Z,54.42
2022-11-16T22:39:50.905Z,52.98
2022-11-16T22:42:21.204Z,52.84
2022-11-16T22:44:52.004Z,52.05
2022-11-16T22:47:22.335Z,50.22
2022-11-16T22:49:53.470Z,52.31
2022-11-16T22:52:23.776Z,51.68
2022-11-16T22:54:54.225Z,52.18
2022-11-16T22:57:24.616Z,51.60
2022-11-16T22:59:54.984Z,50.68
2022-11-16T23:02:25.291Z,51.06
2022-11-16T23:04:55.477Z,51.51
2022-11-16T23:07:27.835Z,50.93
2022-11-16T23:09:58.423Z,49.99
2022-11-16T23:12:47.210Z,50.79
2022-11-16T23:15:35.643Z,51.57
2022-11-16T23:18:06.907Z,50.56
2022-11-16T23:20:57.753Z,52.09
2022-11-16T23:23:47.207Z,52.11
2022-11-16T23:26:43.070Z,52.14
2022-11-16T23:29:13.906Z,54.17
2022-11-16T23:31:44.469Z,53.52
2022-11-16T23:34:14.781Z,56.44
2022-11-16T23:36:45.334Z,55.43
2022-11-16T23:39:16.995Z,57.19
2022-11-16T23:42:06.097Z,57.03
2022-11-16T23:44:36.363Z,55.07
2022-11-16T23:47:07.082Z,56.37
2022-11-16T23:49:37.398Z,57.91
2022-11-16T23:52:07.836Z,58.38
2022-11-16T23:54:38.165Z,57.74
2022-11-16T23:57:08.897Z,59.10
2022-11-16T23:59:40.712Z,58.38
